Time;durP1;ratioP1;P1;durP2;ratioP2;P2;SDS_P1;SDS_P2;PMS_P1;PMS_P2;Temp;Humidity;BMP_temperature;BMP_pressure;BME280_temperature;BME280_humidity;BME280_pressure;Samples;Min_cycle;Max_cycle;Signal;HPM_P1;HPM_P2
2022/09/03 00:02:52;;;;;;;8.32;2.38;;;21.10;99.90;;;;;;5117430;28;20111;-75
2022/09/03 00:05:42;;;;;;;;;;;21.10;99.90;;;;;;5112571;28;20019;-74
2022/09/03 00:08:30;;;;;;;4.60;2.42;;;21.10;99.90;;;;;;5101605;28;19911;-76
2022/09/03 00:11:06;;;;;;;4.82;2.72;;;21.10;99.90;;;;;;5112066;28;20028;-75
2022/09/03 00:13:36;;;;;;;7.45;2.63;;;21.10;99.90;;;;;;5091731;28;20016;-75
2022/09/03 00:16:09;;;;;;;8.27;2.92;;;21.20;99.90;;;;;;5116210;28;20080;-75
2022/09/03 00:18:54;;;;;;;6.70;2.55;;;21.20;99.90;;;;;;5108646;28;20051;-75
2022/09/03 00:21:53;;;;;;;4.25;2.20;;;21.20;99.90;;;;;;5116065;28;20030;-76
2022/09/03 00:24:21;;;;;;;7.53;2.40;;;21.20;99.90;;;;;;5117400;28;20515;-75
2022/09/03 00:26:53;;;;;;;4.90;2.55;;;21.20;99.90;;;;;;5116329;28;20124;-75
2022/09/03 00:29:37;;;;;;;5.47;2.50;;;21.20;99.90;;;;;;5116187;28;20031;-75
2022/09/03 00:32:18;;;;;;;7.35;2.83;;;21.20;99.90;;;;;;5103041;28;20023;-75
2022/09/03 00:34:59;;;;;;;11.13;2.45;;;21.10;99.90;;;;;;5116224;28;20035;-75
2022/09/03 00:37:28;;;;;;;5.55;2.30;;;21.10;99.90;;;;;;5117591;28;20020;-75
2022/09/03 00:40:29;;;;;;;8.02;2.95;;;21.10;99.90;;;;;;5117402;28;20521;-75
2022/09/03 00:43:06;;;;;;;4.57;2.17;;;21.10;99.90;;;;;;5111824;28;20023;-75
2022/09/03 00:45:51;;;;;;;6.13;2.33;;;21.10;99.90;;;;;;5116303;28;20031;-75
2022/09/03 00:48:32;;;;;;;8.82;2.60;;;21.10;99.90;;;;;;5116219;28;20452;-75
2022/09/03 00:51:30;;;;;;;4.20;2.65;;;21.10;99.90;;;;;;5113472;28;20032;-75
2022/09/03 00:54:24;;;;;;;5.80;2.35;;;21.00;99.90;;;;;;5116422;28;20106;-75
2022/09/03 00:57:11;;;;;;;5.47;2.25;;;21.00;99.90;;;;;;5117576;28;20023;-75
2022/09/03 00:59:55;;;;;;;9.75;2.40;;;20.90;99.90;;;;;;5105673;28;20016;-75
2022/09/03 01:03:05;;;;;;;6.57;2.45;;;20.90;99.90;;;;;;5115783;28;20020;-76
2022/09/03 01:05:58;;;;;;;6.05;2.75;;;20.90;99.90;;;;;;5116833;28;20019;-75
2022/09/03 01:08:30;;;;;;;7.22;2.30;;;20.90;99.90;;;;;;5117462;28;20027;-75
2022/09/03 01:11:10;;;;;;;7.32;2.50;;;20.90;99.90;;;;;;5117258;28;20023;-76
2022/09/03 01:13:43;;;;;;;5.18;1.95;;;20.80;99.90;;;;;;5116947;28;20027;-75
2022/09/03 01:16:55;;;;;;;3.42;1.88;;;20.80;99.90;;;;;;5116374;28;20068;-75
2022/09/03 01:19:26;;;;;;;4.68;2.13;;;20.80;99.90;;;;;;5052817;28;20029;-75
2022/09/03 01:22:24;;;;;;;4.30;2.20;;;20.80;99.90;;;;;;5107320;28;20031;-75
2022/09/03 01:24:52;;;;;;;3.55;2.08;;;20.80;99.90;;;;;;5114116;28;20027;-75
2022/09/03 01:27:30;;;;;;;8.05;2.38;;;20.80;99.90;;;;;;5120417;28;20039;-75
2022/09/03 01:30:25;;;;;;;5.93;2.00;;;20.80;99.90;;;;;;5120702;28;20059;-75
2022/09/03 01:33:05;;;;;;;3.67;2.30;;;20.80;99.90;;;;;;5108112;28;20036;-75
2022/09/03 01:35:40;;;;;;;5.45;3.00;;;20.70;99.90;;;;;;5118932;28;20133;-75
2022/09/03 01:38:27;;;;;;;6.50;2.40;;;20.80;99.90;;;;;;5120480;28;20020;-75
2022/09/03 01:44:23;;;;;;;8.40;2.30;;;20.70;99.90;;;;;;5120604;28;20085;-75
2022/09/03 01:47:01;;;;;;;5.63;2.13;;;20.70;99.90;;;;;;5119917;28;20062;-75
2022/09/03 01:49:58;;;;;;;7.80;2.42;;;20.60;99.90;;;;;;5106411;28;20023;-75
2022/09/03 01:52:44;;;;;;;6.53;2.60;;;20.60;99.90;;;;;;5108752;28;20056;-75
2022/09/03 01:55:35;;;;;;;8.57;2.92;;;20.50;99.90;;;;;;5118754;28;20028;-75
2022/09/03 01:58:15;;;;;;;2.35;2.10;;;20.40;99.90;;;;;;5107665;28;20008;-76
2022/09/03 02:00:45;;;;;;;4.95;2.88;;;20.40;99.90;;;;;;5120158;28;20023;-75
2022/09/03 02:03:15;;;;;;;4.97;2.45;;;20.30;99.90;;;;;;5118862;28;20019;-76
2022/09/03 02:05:42;;;;;;;3.87;2.60;;;20.30;99.90;;;;;;5118711;28;20032;-75
2022/09/03 02:08:12;;;;;;;9.50;3.10;;;20.20;99.90;;;;;;5119937;28;20028;-75
2022/09/03 02:10:48;;;;;;;10.68;3.15;;;20.10;99.90;;;;;;5119953;28;20111;-75
2022/09/03 02:13:34;;;;;;;5.47;2.83;;;20.00;99.90;;;;;;5118441;28;20404;-75
2022/09/03 02:16:25;;;;;;;4.78;2.30;;;20.00;99.90;;;;;;5119362;27;20015;-76
2022/09/03 02:18:56;;;;;;;4.97;2.35;;;19.90;99.90;;;;;;5118059;28;20097;-75
2022/09/03 02:21:31;;;;;;;5.88;2.85;;;19.90;99.90;;;;;;5119555;28;20020;-75
2022/09/03 02:23:57;;;;;;;8.77;3.75;;;19.90;99.90;;;;;;5105246;28;20027;-77
2022/09/03 02:26:25;;;;;;;8.60;3.35;;;19.80;99.90;;;;;;5112685;28;20559;-76
2022/09/03 02:28:54;;;;;;;5.30;3.10;;;19.70;99.90;;;;;;5112245;28;20500;-75
2022/09/03 02:31:20;;;;;;;9.48;3.50;;;19.60;99.90;;;;;;5112023;28;20487;-75
2022/09/03 02:33:48;;;;;;;8.40;3.50;;;19.50;99.90;;;;;;5119433;28;20089;-74
2022/09/03 02:36:18;;;;;;;14.18;3.72;;;19.40;99.90;;;;;;5118961;28;20027;-75
2022/09/03 02:38:44;;;;;;;6.15;3.50;;;19.30;99.90;;;;;;5119481;28;20016;-75
2022/09/03 02:41:13;;;;;;;10.18;3.80;;;19.20;99.90;;;;;;5111644;28;20016;-75
2022/09/03 02:44:03;;;;;;;10.43;3.75;;;19.20;99.90;;;;;;5119255;28;20022;-75
2022/09/03 02:46:42;;;;;;;10.15;4.45;;;19.10;99.90;;;;;;5118682;28;20043;-75
2022/09/03 02:49:08;;;;;;;15.10;6.13;;;19.10;99.90;;;;;;5119147;28;20030;-74
2022/09/03 02:51:37;;;;;;;18.17;4.57;;;19.00;99.90;;;;;;5119579;28;20027;-73
2022/09/03 02:54:03;;;;;;;29.67;5.50;;;18.90;99.90;;;;;;5118078;28;20020;-74
2022/09/03 02:56:29;;;;;;;26.63;4.30;;;18.50;99.90;;;;;;5118275;28;20049;-73
2022/09/03 02:58:55;;;;;;;17.50;4.78;;;18.30;99.90;;;;;;5117529;28;20027;-73
2022/09/03 03:01:22;;;;;;;11.73;4.45;;;18.00;99.90;;;;;;5115739;28;20101;-71
2022/09/03 03:03:48;;;;;;;8.98;3.42;;;17.80;99.90;;;;;;5118871;28;20521;-72
2022/09/03 03:06:14;;;;;;;7.40;4.38;;;17.70;99.90;;;;;;5116063;28;20103;-71
2022/09/03 03:08:39;;;;;;;15.70;5.75;;;17.60;99.90;;;;;;5116049;28;20118;-71
2022/09/03 03:11:06;;;;;;;11.80;4.78;;;17.60;99.90;;;;;;5118805;28;20027;-71
2022/09/03 03:13:32;;;;;;;10.93;4.50;;;17.60;99.90;;;;;;5111816;28;20028;-72
2022/09/03 03:16:00;;;;;;;11.73;4.32;;;17.60;99.90;;;;;;5117798;28;20020;-72
2022/09/03 03:18:27;;;;;;;15.93;5.35;;;17.50;99.90;;;;;;5110141;27;20099;-71
2022/09/03 03:20:53;;;;;;;10.93;5.25;;;17.50;99.90;;;;;;5117483;28;20498;-71
2022/09/03 03:23:20;;;;;;;8.05;5.30;;;17.50;99.90;;;;;;5118219;28;20019;-72
2022/09/03 03:25:46;;;;;;;18.27;6.43;;;17.50;99.90;;;;;;5116992;28;20028;-72
2022/09/03 03:28:17;;;;;;;13.15;5.60;;;17.60;99.90;;;;;;5117174;28;20050;-72
2022/09/03 03:30:46;;;;;;;9.73;5.20;;;17.60;99.90;;;;;;5118360;28;20023;-71
2022/09/03 03:33:12;;;;;;;10.18;5.57;;;17.70;99.90;;;;;;5116808;28;20027;-71
2022/09/03 03:35:39;;;;;;;9.98;5.47;;;17.70;99.90;;;;;;5116973;28;20395;-71
2022/09/03 03:38:05;;;;;;;14.20;5.78;;;17.70;99.90;;;;;;5116857;28;20020;-71
2022/09/03 03:40:31;;;;;;;11.27;5.60;;;17.60;99.90;;;;;;5113972;28;20084;-74
2022/09/03 03:42:57;;;;;;;13.70;5.43;;;17.50;99.90;;;;;;5115962;28;20106;-72
2022/09/03 03:45:23;;;;;;;14.80;5.70;;;17.50;99.90;;;;;;5118056;28;20024;-71
2022/09/03 03:47:49;;;;;;;10.85;5.80;;;17.50;99.90;;;;;;5109059;28;20027;-72
2022/09/03 03:50:16;;;;;;;15.55;5.75;;;17.60;99.90;;;;;;5118165;28;20031;-71
2022/09/03 03:52:42;;;;;;;10.00;5.50;;;17.50;99.90;;;;;;5108851;28;20091;-72
2022/09/03 03:55:08;;;;;;;11.38;5.72;;;17.60;99.90;;;;;;5116620;28;20023;-72
2022/09/03 03:57:35;;;;;;;10.07;6.00;;;17.60;99.90;;;;;;5117863;28;20042;-71
2022/09/03 04:00:01;;;;;;;14.82;6.00;;;17.60;99.90;;;;;;5118259;28;20011;-71
2022/09/03 04:02:27;;;;;;;11.18;5.25;;;17.50;99.90;;;;;;5116276;28;20049;-71
2022/09/03 04:04:53;;;;;;;14.07;6.07;;;17.60;99.90;;;;;;5113660;28;20480;-71
2022/09/03 04:07:19;;;;;;;11.63;6.00;;;17.60;99.90;;;;;;5116450;28;20024;-71
2022/09/03 04:09:46;;;;;;;15.60;6.53;;;17.60;99.90;;;;;;5116467;28;20024;-72
2022/09/03 04:12:11;;;;;;;17.38;6.22;;;17.60;99.90;;;;;;5117806;28;20041;-72
2022/09/03 04:14:37;;;;;;;8.20;6.18;;;17.50;99.90;;;;;;5118021;28;20476;-71
2022/09/03 04:17:03;;;;;;;15.05;5.57;;;17.50;99.90;;;;;;5113170;28;20106;-72
2022/09/03 04:19:29;;;;;;;13.18;6.00;;;17.50;99.90;;;;;;5113389;28;20023;-74
2022/09/03 04:21:55;;;;;;;11.05;6.13;;;17.50;99.90;;;;;;5114473;28;20485;-74
2022/09/03 04:24:21;;;;;;;9.52;5.47;;;17.50;99.90;;;;;;5117617;28;20117;-74
2022/09/03 04:26:49;;;;;;;13.77;6.80;;;17.50;99.90;;;;;;5115908;28;20035;-71
2022/09/03 04:29:15;;;;;;;13.15;5.95;;;17.50;99.90;;;;;;5116551;28;20027;-71
2022/09/03 04:32:51;;;;;;;14.63;6.90;;;17.50;99.90;;;;;;5115689;28;20024;-72
2022/09/03 04:34:29;;;;;;;11.82;6.88;;;17.50;99.90;;;;;;5117402;28;20027;-71
2022/09/03 04:36:57;;;;;;;17.00;6.70;;;17.50;99.90;;;;;;5117195;28;20069;-71
2022/09/03 04:39:23;;;;;;;10.32;6.35;;;17.50;99.90;;;;;;5117371;28;20012;-71
2022/09/03 04:41:49;;;;;;;12.00;6.47;;;17.50;99.90;;;;;;5115945;28;20419;-72
2022/09/03 04:44:15;;;;;;;9.30;6.88;;;17.50;99.90;;;;;;5117412;28;20069;-72
2022/09/03 04:46:41;;;;;;;10.02;6.63;;;17.50;99.90;;;;;;5117072;28;20019;-72
2022/09/03 04:49:08;;;;;;;13.48;6.82;;;17.60;99.90;;;;;;5117401;28;20027;-72
2022/09/03 04:51:36;;;;;;;12.23;6.40;;;17.60;99.90;;;;;;5117560;28;20020;-71
2022/09/03 04:54:02;;;;;;;11.80;6.63;;;17.60;99.90;;;;;;5117547;28;20034;-72
2022/09/03 04:56:30;;;;;;;13.52;6.97;;;17.60;99.90;;;;;;5118486;28;20421;-72
2022/09/03 04:58:58;;;;;;;10.93;6.65;;;17.60;99.90;;;;;;5121180;28;20023;-72
2022/09/03 05:01:27;;;;;;;13.80;6.90;;;17.60;99.90;;;;;;5119812;28;20495;-72
2022/09/03 05:03:56;;;;;;;10.48;6.78;;;17.70;99.90;;;;;;5121415;28;20011;-71
2022/09/03 05:06:24;;;;;;;11.60;6.97;;;17.60;99.90;;;;;;5121416;28;20097;-72
2022/09/03 05:08:51;;;;;;;10.27;6.38;;;17.60;99.90;;;;;;5121108;28;20032;-72
2022/09/03 05:11:18;;;;;;;10.90;6.82;;;17.70;99.90;;;;;;5121306;28;20079;-72
2022/09/03 05:13:47;;;;;;;11.57;6.60;;;17.70;99.90;;;;;;5121054;27;20064;-72
2022/09/03 05:16:14;;;;;;;16.92;7.07;;;17.70;99.90;;;;;;5120425;28;20107;-72
2022/09/03 05:18:41;;;;;;;13.93;6.85;;;17.80;99.90;;;;;;5107840;28;20388;-72
2022/09/03 05:21:15;;;;;;;11.63;6.38;;;17.80;99.90;;;;;;5120856;27;20073;-72
2022/09/03 05:23:43;;;;;;;8.90;5.57;;;17.80;99.90;;;;;;5120128;28;20019;-72
2022/09/03 05:26:12;;;;;;;7.85;5.63;;;17.80;99.90;;;;;;5119311;28;20030;-72
2022/09/03 05:28:39;;;;;;;14.13;7.82;;;17.80;99.90;;;;;;5120541;28;20444;-72
2022/09/03 05:31:07;;;;;;;13.93;5.72;;;17.90;99.90;;;;;;5118788;28;20019;-72
2022/09/03 05:33:34;;;;;;;12.13;6.18;;;17.90;99.90;;;;;;5120655;28;20022;-72
2022/09/03 05:36:02;;;;;;;8.52;6.00;;;17.90;99.90;;;;;;5118161;28;20020;-72
2022/09/03 05:38:27;;;;;;;8.32;5.68;;;17.90;99.90;;;;;;5114811;28;20031;-72
2022/09/03 05:40:56;;;;;;;9.20;5.93;;;17.90;99.90;;;;;;5114760;28;20021;-72
2022/09/03 05:43:22;;;;;;;13.45;5.72;;;17.90;99.90;;;;;;5116953;28;20039;-72
2022/09/03 05:45:48;;;;;;;8.50;5.75;;;18.00;99.90;;;;;;5110414;28;20024;-72
2022/09/03 05:48:14;;;;;;;9.40;5.38;;;18.00;99.90;;;;;;5120251;28;20027;-72
2022/09/03 05:50:40;;;;;;;11.13;5.53;;;18.10;99.90;;;;;;5119005;28;20018;-72
2022/09/03 05:53:05;;;;;;;8.13;5.90;;;18.10;99.90;;;;;;5118388;28;20032;-72
2022/09/03 05:55:32;;;;;;;7.53;5.78;;;18.20;99.90;;;;;;5113231;28;20035;-72
2022/09/03 05:57:58;;;;;;;12.57;6.20;;;18.20;99.90;;;;;;5119006;28;20015;-72
2022/09/03 06:00:24;;;;;;;9.23;5.40;;;18.20;99.90;;;;;;5112259;28;20884;-72
2022/09/03 06:02:51;;;;;;;14.52;7.22;;;18.30;99.90;;;;;;5115456;28;20016;-72
2022/09/03 06:05:18;;;;;;;12.65;6.90;;;18.40;99.90;;;;;;5118945;28;20098;-73
2022/09/03 06:07:48;;;;;;;7.47;6.13;;;18.40;99.90;;;;;;5120536;28;20027;-72
2022/09/03 06:10:16;;;;;;;6.05;4.72;;;18.60;99.90;;;;;;5118576;28;20034;-72
2022/09/03 06:12:44;;;;;;;10.23;5.95;;;18.60;99.90;;;;;;5120166;28;20020;-72
2022/09/03 06:15:10;;;;;;;6.53;5.50;;;18.80;99.90;;;;;;5119954;27;20016;-72
2022/09/03 06:17:37;;;;;;;7.00;5.30;;;19.00;99.90;;;;;;5118185;28;20035;-72
2022/09/03 06:20:04;;;;;;;8.23;5.38;;;19.00;99.90;;;;;;5117433;28;20016;-72
2022/09/03 06:22:30;;;;;;;8.20;4.38;;;19.10;99.90;;;;;;5118651;28;20023;-72
2022/09/03 06:24:56;;;;;;;7.65;4.95;;;19.30;99.90;;;;;;5118176;28;20027;-72
2022/09/03 06:27:21;;;;;;;8.80;5.25;;;19.40;99.90;;;;;;5116143;28;20420;-72
2022/09/03 06:29:47;;;;;;;5.95;4.65;;;19.30;99.90;;;;;;5114996;28;20468;-73
2022/09/03 06:32:13;;;;;;;11.15;6.05;;;19.40;99.90;;;;;;5117763;28;20058;-72
2022/09/03 06:34:39;;;;;;;10.60;5.25;;;19.40;99.90;;;;;;5119675;28;20384;-73
2022/09/03 06:37:05;;;;;;;9.98;6.40;;;19.40;99.90;;;;;;5114972;28;20028;-73
2022/09/03 06:39:31;;;;;;;16.42;8.25;;;19.50;99.90;;;;;;5119314;28;20495;-73
2022/09/03 06:41:57;;;;;;;10.75;7.72;;;19.50;99.90;;;;;;5119607;28;20019;-73
2022/09/03 06:44:22;;;;;;;10.45;6.95;;;19.40;99.90;;;;;;5118333;28;20016;-73
2022/09/03 06:46:52;;;;;;;13.40;7.70;;;19.40;99.90;;;;;;5119149;28;20024;-74
2022/09/03 06:49:19;;;;;;;9.90;7.82;;;19.60;99.90;;;;;;5117736;28;20027;-74
2022/09/03 06:51:45;;;;;;;10.70;7.70;;;19.60;99.90;;;;;;5119201;28;20100;-75
2022/09/03 06:54:11;;;;;;;10.00;7.38;;;19.70;99.90;;;;;;5108118;28;20024;-74
2022/09/03 06:56:39;;;;;;;10.48;7.20;;;19.70;99.90;;;;;;5118989;28;20089;-74
2022/09/03 06:59:10;;;;;;;12.77;8.60;;;19.60;99.90;;;;;;5119062;28;20016;-74
2022/09/03 07:01:39;;;;;;;18.70;8.40;;;19.70;99.90;;;;;;5118593;28;20042;-75
2022/09/03 07:04:06;;;;;;;11.00;7.45;;;19.70;99.90;;;;;;5119161;28;20024;-74
2022/09/03 07:06:38;;;;;;;13.75;7.50;;;19.80;99.90;;;;;;5117673;28;20110;-75
2022/09/03 07:09:09;;;;;;;13.73;7.65;;;19.80;99.90;;;;;;5108636;28;20027;-74
2022/09/03 07:11:36;;;;;;;12.68;8.77;;;19.80;99.90;;;;;;5118847;28;20097;-75
2022/09/03 07:14:04;;;;;;;13.75;7.68;;;19.90;99.90;;;;;;5117565;28;20408;-75
2022/09/03 07:17:06;;;;;;;10.32;7.80;;;20.00;99.90;;;;;;5116733;28;20055;-75
2022/09/03 07:19:32;;;;;;;15.65;8.40;;;20.00;99.90;;;;;;5110753;28;20020;-75
2022/09/03 07:21:58;;;;;;;10.43;5.22;;;20.10;99.90;;;;;;5105427;28;20020;-75
2022/09/03 07:24:26;;;;;;;7.80;4.82;;;20.20;99.90;;;;;;5117593;27;20499;-75
2022/09/03 07:26:52;;;;;;;8.60;5.35;;;20.10;99.90;;;;;;5118420;28;20616;-77
2022/09/03 07:29:20;;;;;;;9.18;5.50;;;20.20;99.90;;;;;;5110183;28;20052;-76
2022/09/03 07:31:47;;;;;;;7.72;4.95;;;20.10;99.90;;;;;;5104620;28;20051;-75
2022/09/03 07:34:15;;;;;;;9.73;5.25;;;20.00;99.90;;;;;;5118455;28;20015;-75
2022/09/03 07:36:46;;;;;;;11.32;6.20;;;20.00;99.90;;;;;;5111956;28;20054;-75
2022/09/03 07:39:14;;;;;;;10.90;6.50;;;20.00;99.90;;;;;;5110467;28;20011;-75
2022/09/03 07:41:44;;;;;;;11.40;6.53;;;20.10;99.90;;;;;;5117168;28;20095;-75
2022/09/03 07:44:14;;;;;;;9.32;5.60;;;20.30;99.90;;;;;;5117086;28;20015;-75
2022/09/03 07:46:42;;;;;;;13.80;6.40;;;20.60;99.90;;;;;;5117987;28;20019;-77
2022/09/03 07:49:08;;;;;;;8.75;5.18;;;20.80;99.90;;;;;;5117966;28;20432;-77
2022/09/03 07:51:38;;;;;;;6.85;5.03;;;21.00;99.90;;;;;;5118505;28;20054;-77
2022/09/03 07:54:08;;;;;;;9.13;4.93;;;20.90;99.90;;;;;;5117821;28;20047;-77
2022/09/03 07:56:36;;;;;;;7.25;4.50;;;21.00;99.90;;;;;;5116717;28;20031;-77
2022/09/03 07:59:03;;;;;;;8.95;3.88;;;21.10;99.90;;;;;;5117867;28;20020;-77
2022/09/03 08:01:31;;;;;;;6.05;4.00;;;21.10;99.90;;;;;;5113460;28;20012;-77
2022/09/03 08:03:58;;;;;;;6.50;4.35;;;21.20;99.90;;;;;;5113661;28;20016;-77
2022/09/03 08:06:26;;;;;;;8.27;4.03;;;21.30;99.90;;;;;;5116772;28;20081;-77
2022/09/03 08:09:00;;;;;;;4.53;3.20;;;21.40;99.90;;;;;;5117579;28;20028;-77
2022/09/03 08:11:27;;;;;;;6.20;3.25;;;21.40;99.90;;;;;;5116427;28;20081;-77
2022/09/03 08:14:05;;;;;;;9.57;3.47;;;21.40;99.90;;;;;;5117731;28;20024;-77
2022/09/03 08:16:34;;;;;;;4.55;2.72;;;21.30;99.90;;;;;;5115823;28;20535;-78
2022/09/03 08:19:00;;;;;;;4.78;2.80;;;21.20;99.90;;;;;;5116357;28;20395;-77
2022/09/03 08:21:27;;;;;;;7.43;2.90;;;21.30;99.90;;;;;;5117604;28;20035;-77
2022/09/03 08:24:01;;;;;;;9.45;3.72;;;21.20;99.90;;;;;;5117838;28;20070;-77
2022/09/03 08:26:34;;;;;;;5.82;3.47;;;21.20;99.90;;;;;;5116095;28;20034;-77
2022/09/03 08:29:00;;;;;;;6.47;3.50;;;21.30;99.90;;;;;;5113618;28;20062;-77
2022/09/03 08:31:28;;;;;;;6.03;3.70;;;21.60;99.90;;;;;;5117096;28;20402;-76
2022/09/03 08:33:56;;;;;;;9.15;3.47;;;21.70;99.90;;;;;;5116200;28;20015;-75
2022/09/03 08:36:24;;;;;;;7.32;3.60;;;21.90;99.90;;;;;;5108791;28;20051;-76
2022/09/03 08:38:53;;;;;;;4.57;2.63;;;22.00;99.90;;;;;;5116072;28;20020;-77
2022/09/03 08:41:59;;;;;;;11.40;3.63;;;22.10;99.90;;;;;;5116193;28;20020;-77
2022/09/03 08:44:50;;;;;;;8.38;2.67;;;22.00;99.90;;;;;;5113274;28;20742;-76
2022/09/03 08:47:26;;;;;;;7.93;2.63;;;22.00;99.90;;;;;;5116958;28;20472;-76
2022/09/03 08:50:17;;;;;;;6.07;2.53;;;21.90;99.90;;;;;;5117504;28;20020;-76
2022/09/03 08:53:01;;;;;;;;;;;22.00;99.90;;;;;;5115440;28;20024;-76
2022/09/03 08:55:50;;;;;;;8.30;2.38;;;22.10;99.90;;;;;;5116959;28;19986;-76
2022/09/03 08:58:19;;;;;;;12.75;2.80;;;22.00;99.90;;;;;;5087161;28;20031;-76
2022/09/03 09:01:07;;;;;;;6.78;2.72;;;21.80;99.90;;;;;;5114871;28;20024;-75
2022/09/03 09:03:42;;;;;;;7.00;2.38;;;21.70;99.90;;;;;;5114044;28;20023;-75
2022/09/03 09:06:20;;;;;;;6.05;2.70;;;21.70;99.90;;;;;;5117428;28;20395;-76
2022/09/03 09:08:55;;;;;;;6.50;2.70;;;21.80;99.90;;;;;;5117176;28;20028;-76
2022/09/03 09:11:24;;;;;;;7.47;3.10;;;21.90;99.90;;;;;;5108776;28;20475;-77
2022/09/03 09:13:50;;;;;;;6.43;2.90;;;22.10;99.90;;;;;;5117097;28;20056;-76
2022/09/03 09:16:28;;;;;;;5.45;2.95;;;22.20;99.90;;;;;;5115639;28;20028;-76
2022/09/03 09:19:04;;;;;;;4.63;2.80;;;22.30;99.90;;;;;;5108394;28;20115;-75
2022/09/03 09:21:44;;;;;;;5.20;2.72;;;22.40;99.90;;;;;;5115868;28;20058;-76
2022/09/03 09:24:25;;;;;;;5.43;3.20;;;22.30;99.90;;;;;;5115681;28;20024;-76
2022/09/03 09:26:58;;;;;;;4.60;3.28;;;22.40;99.90;;;;;;5115304;28;20024;-76
2022/09/03 09:29:30;;;;;;;9.40;4.05;;;22.40;99.90;;;;;;5117167;28;20028;-76
2022/09/03 09:31:56;;;;;;;5.97;3.40;;;22.50;99.90;;;;;;5116476;28;20027;-76
2022/09/03 09:34:22;;;;;;;7.68;3.47;;;22.80;99.90;;;;;;5117167;28;20015;-76
2022/09/03 09:36:54;;;;;;;4.55;3.20;;;22.90;99.90;;;;;;5117034;28;20577;-76
2022/09/03 09:39:21;;;;;;;4.78;3.20;;;22.70;99.90;;;;;;5117046;28;20012;-75
2022/09/03 09:42:04;;;;;;;4.82;3.63;;;22.60;99.90;;;;;;5118193;28;20101;-76
2022/09/03 09:44:30;;;;;;;5.80;2.97;;;22.40;99.90;;;;;;5120723;28;20514;-76
2022/09/03 09:47:11;;;;;;;5.07;3.50;;;22.30;99.90;;;;;;5120024;28;20024;-76
2022/09/03 09:49:45;;;;;;;7.00;4.32;;;22.20;99.90;;;;;;5120502;28;20015;-76
2022/09/03 09:52:14;;;;;;;4.82;2.97;;;22.00;99.90;;;;;;5119859;28;20084;-76
2022/09/03 09:54:41;;;;;;;7.80;3.92;;;22.20;99.90;;;;;;5119122;28;20065;-76
2022/09/03 09:57:17;;;;;;;7.07;3.83;;;22.30;99.90;;;;;;5120180;28;20428;-76
2022/09/03 09:59:44;;;;;;;7.63;4.00;;;22.30;99.90;;;;;;5111082;28;20111;-75
2022/09/03 10:02:10;;;;;;;6.07;3.53;;;22.10;99.90;;;;;;5106287;28;20127;-75
2022/09/03 10:04:37;;;;;;;4.55;3.13;;;22.20;99.90;;;;;;5118992;28;20047;-76
2022/09/03 10:07:30;;;;;;;8.60;3.97;;;22.40;99.90;;;;;;5119827;28;20015;-75
2022/09/03 10:10:13;;;;;;;5.07;3.75;;;22.70;99.90;;;;;;5110429;28;20511;-76
2022/09/03 10:13:01;;;;;;;5.65;3.38;;;22.80;99.90;;;;;;5117915;28;20027;-76
2022/09/03 10:15:58;;;;;;;9.90;4.32;;;22.90;99.90;;;;;;5119649;28;20082;-77
2022/09/03 10:19:08;;;;;;;7.97;3.92;;;22.80;99.90;;;;;;5107549;28;20036;-75
2022/09/03 10:22:04;;;;;;;5.13;4.00;;;22.70;99.90;;;;;;5071510;28;20016;-75
2022/09/03 10:24:54;;;;;;;5.65;3.80;;;22.70;99.90;;;;;;5071738;28;20017;-75
2022/09/03 10:27:21;;;;;;;6.07;3.33;;;22.70;99.90;;;;;;5114502;28;20051;-77
2022/09/03 10:29:49;;;;;;;6.43;4.13;;;22.90;99.90;;;;;;5119455;28;20468;-76
2022/09/03 10:32:57;;;;;;;5.88;3.55;;;23.00;99.90;;;;;;5119462;28;20020;-75
2022/09/03 10:35:30;;;;;;;3.72;2.72;;;23.00;99.90;;;;;;5096309;28;20065;-76
2022/09/03 10:38:08;;;;;;;5.13;3.85;;;23.20;99.90;;;;;;5119561;28;20545;-75
2022/09/03 10:41:11;;;;;;;6.75;3.00;;;23.20;99.90;;;;;;5119786;28;20019;-76
2022/09/03 10:43:57;;;;;;;4.35;3.20;;;23.20;99.90;;;;;;5108169;28;20502;-76
2022/09/03 10:46:27;;;;;;;5.80;3.20;;;23.20;99.90;;;;;;5119082;28;20028;-77
2022/09/03 10:49:12;;;;;;;;;;;23.20;99.90;;;;;;5119880;28;20045;-76
2022/09/03 10:51:54;;;;;;;6.05;3.95;;;23.10;99.90;;;;;;5118809;28;19911;-75
2022/09/03 10:54:23;;;;;;;6.35;4.03;;;23.00;99.90;;;;;;5119132;28;20084;-75
2022/09/03 10:57:19;;;;;;;6.30;3.15;;;23.10;99.90;;;;;;5118999;28;20141;-76
2022/09/03 11:00:13;;;;;;;5.93;3.15;;;23.50;99.90;;;;;;5118039;28;20384;-75
2022/09/03 11:02:57;;;;;;;4.70;2.90;;;23.80;99.90;;;;;;5117362;28;20024;-76
2022/09/03 11:05:38;;;;;;;4.72;2.72;;;23.90;99.90;;;;;;5118794;28;20034;-76
2022/09/03 11:08:10;;;;;;;4.30;2.97;;;23.90;99.90;;;;;;5117776;28;20083;-75
2022/09/03 11:10:50;;;;;;;5.15;2.97;;;23.90;99.90;;;;;;5118391;28;20484;-76
2022/09/03 11:13:28;;;;;;;3.85;2.72;;;24.20;99.90;;;;;;5118927;28;20034;-76
2022/09/03 11:16:10;;;;;;;7.00;3.35;;;24.30;99.90;;;;;;5118404;28;20024;-76
2022/09/03 11:18:41;;;;;;;3.75;2.47;;;24.30;99.90;;;;;;5114971;28;20023;-76
2022/09/03 11:21:11;;;;;;;6.53;2.85;;;24.50;99.90;;;;;;5118590;28;20023;-77
2022/09/03 11:23:42;;;;;;;4.10;2.50;;;24.60;99.90;;;;;;5118600;28;20476;-76
2022/09/03 11:26:12;;;;;;;3.88;3.17;;;24.80;99.90;;;;;;5118405;28;20020;-75
2022/09/03 11:28:44;;;;;;;7.25;2.72;;;24.90;99.90;;;;;;5109316;28;20122;-75
2022/09/03 11:31:40;;;;;;;3.67;2.95;;;24.80;99.90;;;;;;5117789;28;20055;-76
2022/09/03 11:34:15;;;;;;;6.05;2.78;;;25.00;99.90;;;;;;5117206;28;20023;-77
2022/09/03 11:36:43;;;;;;;5.25;3.47;;;24.80;99.90;;;;;;5118399;28;20434;-77
2022/09/03 11:39:37;;;;;;;8.50;4.13;;;24.70;99.90;;;;;;5116950;28;20020;-77
2022/09/03 11:42:30;;;;;;;7.97;3.25;;;24.60;99.90;;;;;;5118432;28;20032;-76
2022/09/03 11:45:33;;;;;;;7.47;3.78;;;24.50;99.90;;;;;;5116831;28;20054;-76
2022/09/03 11:48:02;;;;;;;7.80;3.38;;;24.50;99.90;;;;;;5115085;28;20019;-77
2022/09/03 11:50:43;;;;;;;5.38;3.47;;;24.90;99.90;;;;;;5118230;28;20095;-77
2022/09/03 11:53:13;;;;;;;4.07;2.90;;;25.10;99.90;;;;;;5117995;28;20372;-76
2022/09/03 11:55:58;;;;;;;4.07;3.53;;;25.20;99.90;;;;;;5117932;28;20030;-76
2022/09/03 11:58:49;;;;;;;;;;;;;;;;;;;;;
2022/09/03 12:01:19;;;;;;;5.15;3.58;;;25.40;99.90;;;;;;5117825;28;20020;-76
2022/09/03 12:03:51;;;;;;;6.43;3.88;;;25.20;99.90;;;;;;5117211;28;20479;-77
2022/09/03 12:06:39;;;;;;;6.70;3.10;;;25.10;99.90;;;;;;5116556;28;20034;-77
2022/09/03 12:09:38;;;;;;;6.28;3.03;;;25.40;99.90;;;;;;5112330;28;20083;-76
2022/09/03 12:12:29;;;;;;;4.72;2.97;;;25.50;99.90;;;;;;5114063;28;20035;-77
2022/09/03 12:15:17;;;;;;;6.43;3.92;;;25.40;99.90;;;;;;5117867;28;20038;-76
2022/09/03 12:18:17;;;;;;;6.30;3.35;;;25.10;99.90;;;;;;5113767;28;20027;-76
2022/09/03 12:20:59;;;;;;;5.80;2.83;;;25.30;99.90;;;;;;5113952;28;20024;-76
2022/09/03 12:23:38;;;;;;;6.20;3.55;;;25.70;99.90;;;;;;5107787;28;20364;-76
2022/09/03 12:26:07;;;;;;;4.35;2.72;;;25.60;99.90;;;;;;5117630;28;20024;-76
2022/09/03 12:28:37;;;;;;;6.00;3.20;;;25.70;99.90;;;;;;5117500;28;20063;-76
2022/09/03 12:31:19;;;;;;;3.83;2.80;;;25.80;99.90;;;;;;5110760;28;20065;-76
2022/09/03 12:33:49;;;;;;;5.60;2.78;;;25.90;99.90;;;;;;5116512;28;20028;-76
2022/09/03 12:36:17;;;;;;;;;;;26.10;99.90;;;;;;5116657;28;20075;-76
2022/09/03 12:38:43;;;;;;;6.25;3.10;;;26.30;99.90;;;;;;5121765;28;19926;-77
2022/09/03 12:41:26;;;;;;;4.65;2.75;;;26.20;99.90;;;;;;5114659;28;20016;-75
2022/09/03 12:43:58;;;;;;;5.40;2.58;;;26.20;99.90;;;;;;5116247;28;20124;-76
2022/09/03 12:46:30;;;;;;;6.10;2.63;;;26.20;99.90;;;;;;5115605;28;20023;-76
2022/09/03 12:49:11;;;;;;;3.55;2.65;;;26.40;99.90;;;;;;5116438;28;20028;-77
2022/09/03 12:51:44;;;;;;;3.83;2.50;;;26.70;99.90;;;;;;5117620;28;20020;-76
2022/09/03 12:54:15;;;;;;;5.57;2.78;;;27.00;99.90;;;;;;5117343;28;20027;-76
2022/09/03 12:57:07;;;;;;;4.30;2.47;;;26.90;99.90;;;;;;5116055;28;20038;-77
2022/09/03 12:59:36;;;;;;;3.95;2.35;;;26.60;99.90;;;;;;5109990;28;20035;-76
2022/09/03 13:02:15;;;;;;;4.88;3.10;;;26.20;99.90;;;;;;5116928;28;20015;-76
2022/09/03 13:04:44;;;;;;;5.72;2.72;;;26.20;99.90;;;;;;5110502;28;20028;-76
2022/09/03 13:07:22;;;;;;;4.28;2.78;;;26.10;99.90;;;;;;5106585;28;20024;-77
2022/09/03 13:09:48;;;;;;;3.92;2.63;;;26.00;99.90;;;;;;5117181;28;20035;-76
2022/09/03 13:12:34;;;;;;;4.93;2.60;;;26.10;99.90;;;;;;5115970;28;20020;-76
2022/09/03 13:15:06;;;;;;;5.13;2.40;;;26.20;99.90;;;;;;5116797;28;20053;-75
2022/09/03 13:17:51;;;;;;;5.28;2.90;;;26.50;99.90;;;;;;5119788;28;20541;-77
2022/09/03 13:20:30;;;;;;;4.68;2.47;;;26.50;99.90;;;;;;5119811;28;20020;-76
2022/09/03 13:23:12;;;;;;;5.38;2.45;;;26.50;99.90;;;;;;5121131;28;20024;-76
2022/09/03 13:26:12;;;;;;;3.78;2.58;;;26.60;99.90;;;;;;5115141;28;20020;-75